createdAt,value
2022-10-08T00:00:06.022Z,2.13
2022-10-08T00:02:38.064Z,2.03
2022-10-08T00:05:04.827Z,2.28
2022-10-08T00:07:31.099Z,1.63
2022-10-08T00:09:57.460Z,2.20
2022-10-08T00:12:23.745Z,1.50
2022-10-08T00:14:50.121Z,1.95
2022-10-08T00:17:16.467Z,1.65
2022-10-08T00:19:43.089Z,1.65
2022-10-08T00:22:09.419Z,1.70
2022-10-08T00:24:35.994Z,1.90
2022-10-08T00:27:02.285Z,1.48
2022-10-08T00:29:28.711Z,1.80
2022-10-08T00:31:55.203Z,1.35
2022-10-08T00:34:25.927Z,1.38
2022-10-08T00:36:53.316Z,1.50
2022-10-08T00:39:20.335Z,1.40
2022-10-08T00:41:47.958Z,1.20
2022-10-08T00:44:32.813Z,1.63
2022-10-08T00:46:59.187Z,1.42
2022-10-08T00:49:25.553Z,1.33
2022-10-08T00:51:53.787Z,2.00
2022-10-08T00:54:20.775Z,1.20
2022-10-08T00:56:53.996Z,1.88
2022-10-08T00:59:21.013Z,1.30
2022-10-08T01:01:47.904Z,1.50
2022-10-08T01:04:15.450Z,1.35
2022-10-08T01:06:50.016Z,1.60
2022-10-08T01:09:33.941Z,1.40
2022-10-08T01:12:15.775Z,1.23
2022-10-08T01:14:45.132Z,1.25
2022-10-08T01:17:31.492Z,1.50
2022-10-08T01:20:12.928Z,1.50
2022-10-08T01:22:42.379Z,1.30
2022-10-08T01:25:34.607Z,1.40
2022-10-08T01:28:12.430Z,1.70
2022-10-08T01:30:41.563Z,2.22
2022-10-08T01:33:28.269Z,1.50
2022-10-08T01:35:57.291Z,1.20
2022-10-08T01:38:25.097Z,1.50
2022-10-08T01:40:52.953Z,1.70
2022-10-08T01:43:21.807Z,2.05
2022-10-08T01:45:51.763Z,1.77
2022-10-08T01:48:21.574Z,1.77
2022-10-08T01:50:55.672Z,1.60
2022-10-08T01:53:24.516Z,2.20
2022-10-08T01:55:52.945Z,2.63
2022-10-08T01:58:23.659Z,1.70
2022-10-08T02:00:51.024Z,2.10
2022-10-08T02:03:17.471Z,2.03
2022-10-08T02:05:46.067Z,2.20
2022-10-08T02:08:13.130Z,2.45
2022-10-08T02:10:40.446Z,2.05
2022-10-08T02:13:07.805Z,2.88
2022-10-08T02:15:52.659Z,2.58
2022-10-08T02:18:20.559Z,2.10
2022-10-08T02:20:52.847Z,2.28
2022-10-08T02:23:24.038Z,2.63
2022-10-08T02:25:53.583Z,2.72
2022-10-08T02:28:29.120Z,2.80
2022-10-08T02:31:06.543Z,2.80
2022-10-08T02:33:44.395Z,3.20
2022-10-08T02:36:12.339Z,3.05
2022-10-08T02:38:43.060Z,2.97
2022-10-08T02:41:11.119Z,3.30
2022-10-08T02:43:40.533Z,3.28
2022-10-08T02:46:17.185Z,3.95
2022-10-08T02:48:51.746Z,3.17
2022-10-08T02:51:18.678Z,4.07
2022-10-08T02:53:45.887Z,3.28
2022-10-08T02:56:18.446Z,3.35
2022-10-08T02:58:46.068Z,3.42
2022-10-08T03:01:19.835Z,4.30
2022-10-08T03:03:47.914Z,3.97
2022-10-08T03:06:15.990Z,4.22
2022-10-08T03:08:44.575Z,3.85
2022-10-08T03:11:12.001Z,4.20
2022-10-08T03:13:40.420Z,4.00
2022-10-08T03:16:08.759Z,3.92
2022-10-08T03:18:37.175Z,4.10
2022-10-08T03:21:04.664Z,4.63
2022-10-08T03:23:31.351Z,3.92
2022-10-08T03:25:57.906Z,4.38
2022-10-08T03:28:24.447Z,3.88
2022-10-08T03:30:50.974Z,3.92
2022-10-08T03:33:17.617Z,4.20
2022-10-08T03:35:45.453Z,4.22
2022-10-08T03:38:12.368Z,3.97
2022-10-08T03:40:38.684Z,3.92
2022-10-08T03:43:04.989Z,3.60
2022-10-08T03:45:31.274Z,3.88
2022-10-08T03:47:57.552Z,4.10
2022-10-08T03:50:23.840Z,3.80
2022-10-08T03:52:50.287Z,4.18
2022-10-08T03:55:16.825Z,3.83
2022-10-08T03:57:43.423Z,4.00
2022-10-08T04:00:10.419Z,3.45
2022-10-08T04:02:36.996Z,3.20
2022-10-08T04:05:03.798Z,3.22
2022-10-08T04:07:30.172Z,3.13
2022-10-08T04:09:56.667Z,3.08
2022-10-08T04:12:23.229Z,3.22
2022-10-08T04:14:49.954Z,3.00
2022-10-08T04:17:16.583Z,2.42
2022-10-08T04:19:43.085Z,2.80
2022-10-08T04:22:09.597Z,2.95
2022-10-08T04:24:36.072Z,3.08
2022-10-08T04:27:02.588Z,2.72
2022-10-08T04:29:29.016Z,2.53
2022-10-08T04:31:55.535Z,2.50
2022-10-08T04:34:22.023Z,2.90
2022-10-08T04:36:48.471Z,2.42
2022-10-08T04:39:15.195Z,2.67
2022-10-08T04:41:41.747Z,2.70
2022-10-08T04:44:08.211Z,2.40
2022-10-08T04:46:34.620Z,2.70
2022-10-08T04:49:00.943Z,2.22
2022-10-08T04:51:27.478Z,3.20
2022-10-08T04:53:54.631Z,2.60
2022-10-08T04:56:23.362Z,2.30
2022-10-08T04:58:50.001Z,2.30
2022-10-08T05:01:18.242Z,3.03
2022-10-08T05:03:46.059Z,2.33
2022-10-08T05:06:12.904Z,2.50
2022-10-08T05:08:39.352Z,2.95
2022-10-08T05:11:05.877Z,2.88
2022-10-08T05:13:32.659Z,2.83
2022-10-08T05:16:12.783Z,2.35
2022-10-08T05:18:39.855Z,1.98
2022-10-08T05:21:07.073Z,2.25
2022-10-08T05:23:34.023Z,2.53
2022-10-08T05:26:02.424Z,2.70
2022-10-08T05:28:29.346Z,2.58
2022-10-08T05:31:02.027Z,2.80
2022-10-08T05:33:28.538Z,2.70
2022-10-08T05:35:55.156Z,2.45
2022-10-08T05:38:21.515Z,2.88
2022-10-08T05:40:47.799Z,2.50
2022-10-08T05:43:14.348Z,2.55
2022-10-08T05:45:48.663Z,2.35
2022-10-08T05:48:14.944Z,3.10
2022-10-08T05:50:41.245Z,2.45
2022-10-08T05:53:09.359Z,2.40
2022-10-08T05:55:35.711Z,2.45
2022-10-08T05:58:02.031Z,2.35
2022-10-08T06:00:28.464Z,2.53
2022-10-08T06:02:54.835Z,2.58
2022-10-08T06:05:21.635Z,2.45
2022-10-08T06:07:47.911Z,2.08
2022-10-08T06:10:14.446Z,2.30
2022-10-08T06:12:40.830Z,2.38
2022-10-08T06:15:07.293Z,2.40
2022-10-08T06:17:33.636Z,2.03
2022-10-08T06:19:59.963Z,1.65
2022-10-08T06:22:26.360Z,2.42
2022-10-08T06:24:52.959Z,1.73
2022-10-08T06:27:19.354Z,2.17
2022-10-08T06:29:45.834Z,2.20
2022-10-08T06:32:12.621Z,1.70
2022-10-08T06:34:39.079Z,2.50
2022-10-08T06:37:05.388Z,2.63
2022-10-08T06:39:31.829Z,2.50
2022-10-08T06:41:58.211Z,2.30
2022-10-08T06:44:30.668Z,2.30
2022-10-08T06:46:57.073Z,1.90
2022-10-08T06:49:26.599Z,2.20
2022-10-08T06:51:52.936Z,2.45
2022-10-08T06:54:19.443Z,2.08
2022-10-08T06:56:45.751Z,2.25
2022-10-08T06:59:12.040Z,1.90
2022-10-08T07:01:38.466Z,1.73
2022-10-08T07:04:05.447Z,2.00
2022-10-08T07:06:32.060Z,2.00
2022-10-08T07:08:59.525Z,1.60
2022-10-08T07:11:26.680Z,1.60
2022-10-08T07:13:54.392Z,1.90
2022-10-08T07:16:21.794Z,1.90
2022-10-08T07:18:49.111Z,1.70
2022-10-08T07:21:16.307Z,1.65
2022-10-08T07:23:42.949Z,1.60
2022-10-08T07:26:13.535Z,1.77
2022-10-08T07:28:41.048Z,1.67
2022-10-08T07:31:08.512Z,1.73
2022-10-08T07:33:34.930Z,1.80
2022-10-08T07:36:12.020Z,1.60
2022-10-08T07:38:38.764Z,1.80
2022-10-08T07:41:05.647Z,1.50
2022-10-08T07:43:32.276Z,1.83
2022-10-08T07:45:58.630Z,1.67
2022-10-08T07:48:25.064Z,1.60
2022-10-08T07:50:51.374Z,2.33
2022-10-08T07:53:17.836Z,1.33
2022-10-08T07:55:44.275Z,1.48
2022-10-08T07:58:10.789Z,1.60
2022-10-08T08:00:40.521Z,1.63
2022-10-08T08:03:06.913Z,1.42
2022-10-08T08:05:34.484Z,2.10
2022-10-08T08:08:00.830Z,1.85
2022-10-08T08:10:27.107Z,2.15
2022-10-08T08:12:53.548Z,1.85
2022-10-08T08:15:19.852Z,1.45
2022-10-08T08:17:46.293Z,1.30
2022-10-08T08:20:12.618Z,1.40
2022-10-08T08:22:38.915Z,2.03
2022-10-08T08:25:05.791Z,1.52
2022-10-08T08:27:32.133Z,1.40
2022-10-08T08:29:58.478Z,1.70
2022-10-08T08:32:28.416Z,1.23
2022-10-08T08:34:55.064Z,1.60
2022-10-08T08:37:21.346Z,1.60
2022-10-08T08:39:47.629Z,1.48
2022-10-08T08:42:17.532Z,1.38
2022-10-08T08:44:45.934Z,1.70
2022-10-08T08:47:15.556Z,1.75
2022-10-08T08:49:43.976Z,1.50
2022-10-08T08:52:12.404Z,1.20
2022-10-08T08:54:38.844Z,1.95
2022-10-08T08:57:25.505Z,1.45
2022-10-08T08:59:54.390Z,1.60
2022-10-08T09:02:29.775Z,1.48
2022-10-08T09:04:58.467Z,1.83
2022-10-08T09:07:27.603Z,1.40
2022-10-08T09:09:55.321Z,1.48
2022-10-08T09:12:23.535Z,2.20
2022-10-08T09:14:52.979Z,1.75
2022-10-08T09:17:20.712Z,1.48
2022-10-08T09:19:48.474Z,1.73
2022-10-08T09:22:17.603Z,1.80
2022-10-08T09:24:44.043Z,2.00
2022-10-08T09:27:14.285Z,1.98
2022-10-08T09:29:40.570Z,1.90
2022-10-08T09:32:14.480Z,1.73
2022-10-08T09:34:41.144Z,1.40
2022-10-08T09:37:15.119Z,2.03
2022-10-08T09:40:01.550Z,2.10
2022-10-08T09:42:28.006Z,1.38
2022-10-08T09:44:56.746Z,1.63
2022-10-08T09:47:24.046Z,1.80
2022-10-08T09:50:04.742Z,2.00
2022-10-08T09:52:31.447Z,1.80
2022-10-08T09:55:02.595Z,1.45
2022-10-08T09:57:29.701Z,1.60
2022-10-08T10:00:04.047Z,1.92
2022-10-08T10:02:32.834Z,2.10
2022-10-08T10:05:00.505Z,1.60
2022-10-08T10:07:37.608Z,1.42
2022-10-08T10:10:05.392Z,1.30
2022-10-08T10:12:37.893Z,1.70
2022-10-08T10:15:06.271Z,2.03
2022-10-08T10:17:39.272Z,1.73
2022-10-08T10:20:27.441Z,0.85
2022-10-08T10:22:56.706Z,1.58
2022-10-08T10:25:26.163Z,1.65
2022-10-08T10:27:54.888Z,1.30
2022-10-08T10:30:22.527Z,1.30
2022-10-08T10:33:09.454Z,1.15
2022-10-08T10:35:40.759Z,1.50
2022-10-08T10:38:15.901Z,1.60
2022-10-08T10:41:02.043Z,1.45
2022-10-08T10:43:48.138Z,1.15
2022-10-08T10:46:23.361Z,1.30
2022-10-08T10:48:50.196Z,1.50
2022-10-08T10:51:28.572Z,1.88
2022-10-08T10:54:00.964Z,1.30
2022-10-08T10:56:30.374Z,1.83
2022-10-08T10:58:56.750Z,1.55
2022-10-08T11:01:35.260Z,1.30
2022-10-08T11:04:08.143Z,1.50
2022-10-08T11:06:40.690Z,1.70
2022-10-08T11:09:26.118Z,1.45
2022-10-08T11:11:59.763Z,1.52
2022-10-08T11:14:29.302Z,1.40
2022-10-08T11:17:19.912Z,1.33
2022-10-08T11:20:03.783Z,1.83
2022-10-08T11:22:43.019Z,2.15
2022-10-08T11:25:28.365Z,2.35
2022-10-08T11:28:14.777Z,1.70
2022-10-08T11:30:47.006Z,1.40
2022-10-08T11:33:14.074Z,1.17
2022-10-08T11:35:49.815Z,1.40
2022-10-08T11:38:26.234Z,1.25
2022-10-08T11:40:52.538Z,1.70
2022-10-08T11:43:18.920Z,1.30
2022-10-08T11:45:46.138Z,1.58
2022-10-08T11:48:32.690Z,1.63
2022-10-08T11:51:17.835Z,1.77
2022-10-08T11:54:03.133Z,1.80
2022-10-08T11:56:30.215Z,1.50
2022-10-08T11:58:57.363Z,1.45
2022-10-08T12:01:23.993Z,1.73
2022-10-08T12:04:05.160Z,1.73
2022-10-08T12:06:35.643Z,1.67
2022-10-08T12:09:04.105Z,1.58
2022-10-08T12:11:35.397Z,1.50
2022-10-08T12:14:10.575Z,1.38
2022-10-08T12:16:49.231Z,1.48
2022-10-08T12:19:41.648Z,2.47
2022-10-08T12:22:10.965Z,1.85
2022-10-08T12:24:37.511Z,1.70
2022-10-08T12:27:22.624Z,1.60
2022-10-08T12:30:01.145Z,1.67
2022-10-08T12:32:28.545Z,1.60
2022-10-08T12:34:55.464Z,1.80
2022-10-08T12:37:42.010Z,1.83
2022-10-08T12:40:12.489Z,2.03
2022-10-08T12:42:40.035Z,1.17
2022-10-08T12:45:26.519Z,1.83
2022-10-08T12:48:05.000Z,1.55
2022-10-08T12:50:36.437Z,2.05
2022-10-08T12:53:04.004Z,1.77
2022-10-08T12:55:35.628Z,1.73
2022-10-08T12:58:05.383Z,1.70
2022-10-08T13:00:34.603Z,2.13
2022-10-08T13:03:03.367Z,1.80
2022-10-08T13:05:31.288Z,1.50
2022-10-08T13:07:58.389Z,1.85
2022-10-08T13:10:25.986Z,1.67
2022-10-08T13:12:59.215Z,1.90
2022-10-08T13:15:28.180Z,1.15
2022-10-08T13:17:54.628Z,1.30
2022-10-08T13:20:22.028Z,1.10
2022-10-08T13:22:48.477Z,1.40
2022-10-08T13:25:33.324Z,1.40
2022-10-08T13:28:10.085Z,1.20
2022-10-08T13:30:36.668Z,1.42
2022-10-08T13:33:15.357Z,1.55
2022-10-08T13:35:42.234Z,1.88
2022-10-08T13:38:13.068Z,1.20
2022-10-08T13:43:06.409Z,1.67
2022-10-08T13:45:38.301Z,1.23
2022-10-08T13:48:08.293Z,0.98
2022-10-08T13:50:34.902Z,1.17
2022-10-08T13:53:01.659Z,1.20
2022-10-08T13:55:32.406Z,1.33
2022-10-08T13:58:01.753Z,1.42
2022-10-08T14:00:30.246Z,1.50
2022-10-08T14:02:56.620Z,1.40
2022-10-08T14:05:23.987Z,1.30
2022-10-08T14:07:52.669Z,1.25
2022-10-08T14:10:19.231Z,1.27
2022-10-08T14:12:46.046Z,1.50
2022-10-08T14:15:13.359Z,1.52
2022-10-08T14:17:39.860Z,1.45
2022-10-08T14:20:06.527Z,1.38
2022-10-08T14:22:38.686Z,1.35
2022-10-08T14:25:14.852Z,1.42
2022-10-08T14:27:41.139Z,1.80
2022-10-08T14:30:08.139Z,1.67
2022-10-08T14:32:34.446Z,1.27
2022-10-08T14:35:00.816Z,1.33
2022-10-08T14:37:27.225Z,1.55
2022-10-08T14:39:53.549Z,1.33
2022-10-08T14:42:19.864Z,1.48
2022-10-08T14:44:47.804Z,1.30
2022-10-08T14:47:14.710Z,1.50
2022-10-08T14:49:41.009Z,1.23
2022-10-08T14:52:07.266Z,1.55
2022-10-08T14:54:33.576Z,1.50
2022-10-08T14:57:00.044Z,1.25
2022-10-08T14:59:26.536Z,1.45
2022-10-08T15:01:53.276Z,1.40
2022-10-08T15:04:19.753Z,1.60
2022-10-08T15:06:46.257Z,1.88
2022-10-08T15:09:12.986Z,1.27
2022-10-08T15:11:39.427Z,1.55
2022-10-08T15:14:07.069Z,1.45
2022-10-08T15:16:33.670Z,1.65
2022-10-08T15:19:00.193Z,1.60
2022-10-08T15:21:26.528Z,1.88
2022-10-08T15:23:54.544Z,1.70
2022-10-08T15:26:21.140Z,1.92
2022-10-08T15:28:50.899Z,1.75
2022-10-08T15:31:18.206Z,1.95
2022-10-08T15:33:46.079Z,1.65
2022-10-08T15:36:17.651Z,1.40
2022-10-08T15:38:44.253Z,1.65
2022-10-08T15:41:10.539Z,1.33
2022-10-08T15:43:37.004Z,1.60
2022-10-08T15:46:10.842Z,1.60
2022-10-08T15:48:37.767Z,1.52
2022-10-08T15:51:04.362Z,1.50
2022-10-08T15:53:37.387Z,1.90
2022-10-08T15:56:04.481Z,1.90
2022-10-08T15:58:52.955Z,1.63
2022-10-08T16:01:21.934Z,1.58
2022-10-08T16:03:50.388Z,1.92
2022-10-08T16:06:18.317Z,1.55
2022-10-08T16:08:44.915Z,1.90
2022-10-08T16:11:20.666Z,1.83
2022-10-08T16:13:48.787Z,1.58
2022-10-08T16:16:18.690Z,1.50
2022-10-08T16:18:46.088Z,1.20
2022-10-08T16:21:13.119Z,1.60
2022-10-08T16:23:39.710Z,1.52
2022-10-08T16:26:08.191Z,1.48
2022-10-08T16:28:35.807Z,1.63
2022-10-08T16:31:02.619Z,1.45
2022-10-08T16:33:29.025Z,1.38
2022-10-08T16:35:56.401Z,1.50
2022-10-08T16:38:23.007Z,1.50
2022-10-08T16:40:49.431Z,1.52
2022-10-08T16:43:15.815Z,1.67
2022-10-08T16:45:42.166Z,1.63
2022-10-08T16:48:08.497Z,1.70
2022-10-08T16:50:38.962Z,1.40
2022-10-08T16:53:07.336Z,1.52
2022-10-08T16:55:34.688Z,1.77
2022-10-08T16:58:01.179Z,2.63
2022-10-08T17:00:27.516Z,2.00
2022-10-08T17:02:53.877Z,2.00
2022-10-08T17:05:20.233Z,1.70
2022-10-08T17:07:46.724Z,1.52
2022-10-08T17:10:13.423Z,1.60
2022-10-08T17:12:40.187Z,2.25
2022-10-08T17:15:06.811Z,1.60
2022-10-08T17:17:34.413Z,1.65
2022-10-08T17:20:00.747Z,1.40
2022-10-08T17:22:27.073Z,1.65
2022-10-08T17:24:53.614Z,1.67
2022-10-08T17:27:19.966Z,1.45
2022-10-08T17:29:46.276Z,1.80
2022-10-08T17:32:12.669Z,1.70
2022-10-08T17:34:39.056Z,1.60
2022-10-08T17:37:05.401Z,2.03
2022-10-08T17:39:32.543Z,1.50
2022-10-08T17:42:00.195Z,1.98
2022-10-08T17:44:29.176Z,2.07
2022-10-08T17:46:55.781Z,2.03
2022-10-08T17:49:22.319Z,2.05
2022-10-08T17:51:48.682Z,2.78
2022-10-08T17:54:16.324Z,3.10
2022-10-08T17:56:43.082Z,2.88
2022-10-08T17:59:12.773Z,3.88
2022-10-08T18:01:42.753Z,5.40
2022-10-08T18:04:12.639Z,4.57
2022-10-08T18:06:42.726Z,3.53
2022-10-08T18:09:19.716Z,2.70
2022-10-08T18:11:47.549Z,2.40
2022-10-08T18:14:14.016Z,2.65
2022-10-08T18:16:44.298Z,2.40
2022-10-08T18:19:13.383Z,3.65
2022-10-08T18:21:39.746Z,3.00
2022-10-08T18:24:06.158Z,2.88
2022-10-08T18:26:34.556Z,3.88
2022-10-08T18:29:02.083Z,3.90
2022-10-08T18:31:29.668Z,5.72
2022-10-08T18:34:00.234Z,4.80
2022-10-08T18:36:30.970Z,3.20
2022-10-08T18:38:59.811Z,2.30
2022-10-08T18:41:28.015Z,2.08
2022-10-08T18:43:55.076Z,2.10
2022-10-08T18:46:22.273Z,2.03
2022-10-08T18:48:49.362Z,1.70
2022-10-08T18:51:17.661Z,2.10
2022-10-08T18:53:44.476Z,2.13
2022-10-08T18:56:12.627Z,1.63
2022-10-08T18:58:39.136Z,1.98
2022-10-08T19:01:06.023Z,1.77
2022-10-08T19:03:32.848Z,1.98
2022-10-08T19:05:59.184Z,1.65
2022-10-08T19:08:25.587Z,1.85
2022-10-08T19:10:52.043Z,1.50
2022-10-08T19:13:19.842Z,1.65
2022-10-08T19:15:46.465Z,1.80
2022-10-08T19:18:12.860Z,1.60
2022-10-08T19:20:39.236Z,1.50
2022-10-08T19:23:06.131Z,1.63
2022-10-08T19:25:34.346Z,1.83
2022-10-08T19:28:00.672Z,1.88
2022-10-08T19:30:32.539Z,1.50
2022-10-08T19:32:59.227Z,1.73
2022-10-08T19:35:25.543Z,1.90
2022-10-08T19:37:51.811Z,1.55
2022-10-08T19:40:18.100Z,2.17
2022-10-08T19:42:44.378Z,1.60
2022-10-08T19:45:10.808Z,1.77
2022-10-08T19:47:37.542Z,2.00
2022-10-08T19:50:04.037Z,1.88
2022-10-08T19:52:30.428Z,2.20
2022-10-08T19:54:56.739Z,1.90
2022-10-08T19:57:23.038Z,1.70
2022-10-08T19:59:49.512Z,2.35
2022-10-08T20:02:15.949Z,2.55
2022-10-08T20:04:42.472Z,2.50
2022-10-08T20:07:08.736Z,2.22
2022-10-08T20:09:36.149Z,2.60
2022-10-08T20:12:03.221Z,3.20
2022-10-08T20:14:29.619Z,3.10
2022-10-08T20:16:55.905Z,3.60
2022-10-08T20:19:22.526Z,4.50
2022-10-08T20:21:49.507Z,4.05
2022-10-08T20:24:16.170Z,5.25
2022-10-08T20:26:43.484Z,3.17
2022-10-08T20:29:11.642Z,3.47
2022-10-08T20:31:39.665Z,3.63
2022-10-08T20:34:07.131Z,3.30
2022-10-08T20:36:33.751Z,3.00
2022-10-08T20:39:00.383Z,2.80
2022-10-08T20:41:30.693Z,2.88
2022-10-08T20:44:02.214Z,2.42
2022-10-08T20:46:28.757Z,2.20
2022-10-08T20:48:55.100Z,2.20
2022-10-08T20:51:22.726Z,2.70
2022-10-08T20:53:53.183Z,2.80
2022-10-08T20:56:19.848Z,2.65
2022-10-08T20:58:46.154Z,2.28
2022-10-08T21:01:26.169Z,2.58
2022-10-08T21:03:52.984Z,3.70
2022-10-08T21:06:20.793Z,2.50
2022-10-08T21:08:48.063Z,3.17
2022-10-08T21:11:19.786Z,2.60
2022-10-08T21:13:46.406Z,2.85
2022-10-08T21:16:14.359Z,3.05
2022-10-08T21:18:40.851Z,2.90
2022-10-08T21:21:07.099Z,2.58
2022-10-08T21:23:33.481Z,3.10
2022-10-08T21:26:07.086Z,2.92
2022-10-08T21:28:33.726Z,2.90
2022-10-08T21:31:03.917Z,3.13
2022-10-08T21:33:31.029Z,2.78
2022-10-08T21:35:57.837Z,2.60
2022-10-08T21:38:24.461Z,3.03
2022-10-08T21:40:54.655Z,3.42
2022-10-08T21:43:21.035Z,3.20
2022-10-08T21:45:56.695Z,3.22
2022-10-08T21:48:23.883Z,3.90
2022-10-08T21:50:57.111Z,3.03
2022-10-08T21:53:23.841Z,3.20
2022-10-08T21:55:53.835Z,3.13
2022-10-08T21:58:20.184Z,3.00
2022-10-08T22:00:46.500Z,3.17
2022-10-08T22:03:12.897Z,3.10
2022-10-08T22:05:39.203Z,3.58
2022-10-08T22:08:05.684Z,3.22
2022-10-08T22:10:32.202Z,3.55
2022-10-08T22:12:58.516Z,3.28
2022-10-08T22:15:24.792Z,3.08
2022-10-08T22:17:51.074Z,2.88
2022-10-08T22:20:17.443Z,3.20
2022-10-08T22:22:43.720Z,3.13
2022-10-08T22:25:10.116Z,3.00
2022-10-08T22:27:36.386Z,3.20
2022-10-08T22:30:02.678Z,3.10
2022-10-08T22:32:28.987Z,3.42
2022-10-08T22:34:55.313Z,3.60
2022-10-08T22:37:21.588Z,3.10
2022-10-08T22:39:47.847Z,3.35
2022-10-08T22:42:14.144Z,3.17
2022-10-08T22:44:40.446Z,3.40
2022-10-08T22:47:06.719Z,3.38
2022-10-08T22:49:33.031Z,2.92
2022-10-08T22:51:59.297Z,3.30
2022-10-08T22:54:25.835Z,3.30
2022-10-08T22:56:52.186Z,3.17
2022-10-08T22:59:18.505Z,3.72
2022-10-08T23:01:44.855Z,3.45
2022-10-08T23:04:11.288Z,3.50
2022-10-08T23:06:37.563Z,3.47
2022-10-08T23:09:05.756Z,3.28
2022-10-08T23:11:32.157Z,3.42
2022-10-08T23:13:59.310Z,3.40
2022-10-08T23:16:26.558Z,3.45
2022-10-08T23:18:54.881Z,3.47
2022-10-08T23:21:21.560Z,3.40
2022-10-08T23:23:48.708Z,3.30
2022-10-08T23:26:16.558Z,2.90
2022-10-08T23:28:43.648Z,3.67
2022-10-08T23:31:10.021Z,3.55
2022-10-08T23:33:38.162Z,3.58
2022-10-08T23:36:08.522Z,3.25
2022-10-08T23:38:36.159Z,3.17
2022-10-08T23:41:03.140Z,3.08
2022-10-08T23:43:33.215Z,3.28
2022-10-08T23:45:59.622Z,3.15
2022-10-08T23:48:25.963Z,2.50
2022-10-08T23:50:52.781Z,3.30
2022-10-08T23:53:19.969Z,3.75
2022-10-08T23:55:46.511Z,4.07
2022-10-08T23:58:13.505Z,4.40
